Time;durP1;ratioP1;P1;durP2;ratioP2;P2;SDS_P1;SDS_P2;PMS_P1;PMS_P2;Temp;Humidity;BMP_temperature;BMP_pressure;BME280_temperature;BME280_humidity;BME280_pressure;Samples;Min_cycle;Max_cycle;Signal;HPM_P1;HPM_P2
2022/03/05 00:00:20;;;;;;;11.18;4.57;;;;;;;;;;5048332;28;20040;-61
2022/03/05 00:02:53;;;;;;;9.82;5.05;;;;;;;;;;5041181;28;20643;-60
2022/03/05 00:05:29;;;;;;;11.13;4.78;;;;;;;;;;5041763;28;20499;-59
2022/03/05 00:07:54;;;;;;;10.45;4.28;;;;;;;;;;5036584;28;20033;-60
2022/03/05 00:10:23;;;;;;;16.25;5.05;;;;;;;;;;5039770;28;21973;-60
2022/03/05 00:12:54;;;;;;;11.13;5.15;;;;;;;;;;5032488;28;20733;-60
2022/03/05 00:15:23;;;;;;;16.55;5.00;;;;;;;;;;5029185;28;20025;-60
2022/03/05 00:17:49;;;;;;;9.38;4.72;;;;;;;;;;5043752;28;20033;-60
2022/03/05 00:20:18;;;;;;;8.82;3.95;;;;;;;;;;5042327;28;20040;-61
2022/03/05 00:22:47;;;;;;;10.88;4.05;;;;;;;;;;5041793;28;20496;-61
2022/03/05 00:25:14;;;;;;;10.50;4.55;;;;;;;;;;5045417;28;20033;-61
2022/03/05 00:27:45;;;;;;;16.63;5.70;;;;;;;;;;5025071;28;20089;-61
2022/03/05 00:30:15;;;;;;;8.40;4.53;;;;;;;;;;5055102;28;20999;-61
2022/03/05 00:32:40;;;;;;;10.50;4.60;;;;;;;;;;5038455;28;20033;-60
2022/03/05 00:35:10;;;;;;;13.98;4.35;;;;;;;;;;5038543;28;22018;-61
2022/03/05 00:37:41;;;;;;;10.35;4.55;;;;;;;;;;5039786;28;20827;-60
2022/03/05 00:40:09;;;;;;;10.13;4.82;;;;;;;;;;5039679;28;20024;-60
2022/03/05 00:42:39;;;;;;;10.82;4.40;;;;;;;;;;5040354;28;20035;-60
2022/03/05 00:45:05;;;;;;;7.05;3.83;;;;;;;;;;5039502;28;20119;-60
2022/03/05 00:47:31;;;;;;;11.25;5.15;;;;;;;;;;5039256;28;20027;-61
2022/03/05 00:50:02;;;;;;;10.00;5.38;;;;;;;;;;5037821;28;20491;-61
2022/03/05 00:52:28;;;;;;;13.30;5.50;;;;;;;;;;5039586;28;20040;-61
2022/03/05 00:54:53;;;;;;;13.07;5.88;;;;;;;;;;5037018;28;20035;-61
2022/03/05 00:57:18;;;;;;;16.05;5.03;;;;;;;;;;5011072;28;20041;-61
2022/03/05 00:59:44;;;;;;;13.75;5.63;;;;;;;;;;5023626;28;20171;-61
2022/03/05 01:02:12;;;;;;;10.07;4.65;;;;;;;;;;5038808;28;20040;-61
2022/03/05 01:04:40;;;;;;;11.00;5.07;;;;;;;;;;5036885;28;20032;-61
2022/03/05 01:07:10;;;;;;;9.52;4.70;;;;;;;;;;5027759;28;20118;-62
2022/03/05 01:09:39;;;;;;;11.50;5.22;;;;;;;;;;5037127;28;20459;-61
2022/03/05 01:12:07;;;;;;;12.35;5.55;;;;;;;;;;5023824;28;20037;-62
2022/03/05 01:14:32;;;;;;;15.60;5.72;;;;;;;;;;5027923;28;20041;-61
2022/03/05 01:17:03;;;;;;;9.75;5.47;;;;;;;;;;5039369;28;20062;-61
2022/03/05 01:19:33;;;;;;;12.82;5.30;;;;;;;;;;5036165;28;20117;-62
2022/03/05 01:21:59;;;;;;;9.98;5.47;;;;;;;;;;5041507;28;20139;-61
2022/03/05 01:24:25;;;;;;;11.10;5.10;;;;;;;;;;5023259;28;20043;-61
2022/03/05 01:26:53;;;;;;;15.13;5.72;;;;;;;;;;5036467;28;20051;-61
2022/03/05 01:29:21;;;;;;;14.07;5.97;;;;;;;;;;5037706;28;20029;-61
2022/03/05 01:31:50;;;;;;;15.20;6.07;;;;;;;;;;5039460;28;20035;-62
2022/03/05 01:34:16;;;;;;;10.68;4.72;;;;;;;;;;5037258;28;20029;-62
2022/03/05 01:36:46;;;;;;;8.30;5.38;;;;;;;;;;5040552;28;20043;-61
2022/03/05 01:39:16;;;;;;;14.45;6.28;;;;;;;;;;5037089;28;20680;-62
2022/03/05 01:41:45;;;;;;;12.90;6.30;;;;;;;;;;5028595;28;20035;-62
2022/03/05 01:44:13;;;;;;;9.02;4.70;;;;;;;;;;5037024;28;20050;-63
2022/03/05 01:46:42;;;;;;;11.32;5.05;;;;;;;;;;5039323;28;20039;-63
2022/03/05 01:49:10;;;;;;;15.05;5.50;;;;;;;;;;5038612;28;20391;-62
2022/03/05 01:51:36;;;;;;;10.80;4.82;;;;;;;;;;5038798;28;20040;-63
2022/03/05 01:54:02;;;;;;;10.35;4.55;;;;;;;;;;5039515;28;20121;-62
2022/03/05 01:56:28;;;;;;;13.55;5.05;;;;;;;;;;5021350;28;20037;-62
2022/03/05 01:58:54;;;;;;;12.70;5.28;;;;;;;;;;5039159;28;20045;-62
2022/03/05 02:01:20;;;;;;;13.20;5.57;;;;;;;;;;5038431;28;20134;-62
2022/03/05 02:03:46;;;;;;;14.02;4.28;;;;;;;;;;5026616;28;21935;-62
2022/03/05 02:06:13;;;;;;;10.73;5.18;;;;;;;;;;5023155;28;20102;-62
2022/03/05 02:08:41;;;;;;;13.57;5.18;;;;;;;;;;5020749;28;20040;-61
2022/03/05 02:11:12;;;;;;;10.57;5.10;;;;;;;;;;5039518;28;20037;-63
2022/03/05 02:13:37;;;;;;;8.82;5.03;;;;;;;;;;5042833;28;20060;-62
2022/03/05 02:16:03;;;;;;;11.82;4.75;;;;;;;;;;5024553;28;20041;-61
2022/03/05 02:18:33;;;;;;;13.32;5.55;;;;;;;;;;5021396;28;20062;-61
2022/03/05 02:21:03;;;;;;;11.57;5.35;;;;;;;;;;5024967;28;22037;-61
2022/03/05 02:23:32;;;;;;;8.88;4.05;;;;;;;;;;5024455;28;20103;-61
2022/03/05 02:25:58;;;;;;;16.48;5.30;;;;;;;;;;5035073;28;20499;-61
2022/03/05 02:28:25;;;;;;;8.80;4.18;;;;;;;;;;5025303;28;20048;-61
2022/03/05 02:30:53;;;;;;;9.95;4.85;;;;;;;;;;5038439;28;20419;-62
2022/03/05 02:33:18;;;;;;;9.85;4.78;;;;;;;;;;5036135;28;20502;-62
2022/03/05 02:35:46;;;;;;;11.77;4.43;;;;;;;;;;5029847;28;20040;-62
2022/03/05 02:38:15;;;;;;;7.95;4.78;;;;;;;;;;5039966;28;20033;-62
2022/03/05 02:40:44;;;;;;;8.15;4.28;;;;;;;;;;5042452;28;20024;-62
2022/03/05 02:43:11;;;;;;;11.80;5.30;;;;;;;;;;5044140;28;20040;-62
2022/03/05 02:45:41;;;;;;;8.60;5.03;;;;;;;;;;5041689;28;20035;-63
2022/03/05 02:48:08;;;;;;;13.75;6.03;;;;;;;;;;5042788;28;20032;-61
2022/03/05 02:50:33;;;;;;;14.65;4.40;;;;;;;;;;5047265;28;20017;-62
2022/03/05 02:52:59;;;;;;;10.32;4.93;;;;;;;;;;5026457;28;20352;-62
2022/03/05 02:55:24;;;;;;;11.57;4.57;;;;;;;;;;5024076;28;20040;-62
2022/03/05 02:57:52;;;;;;;9.85;4.88;;;;;;;;;;5048509;28;20124;-63
2022/03/05 03:00:18;;;;;;;10.55;4.43;;;;;;;;;;5024806;28;20458;-63
2022/03/05 03:02:45;;;;;;;8.05;4.22;;;;;;;;;;5038225;28;20032;-63
2022/03/05 03:05:13;;;;;;;10.07;4.50;;;;;;;;;;5038166;28;20036;-63
2022/03/05 03:07:41;;;;;;;8.95;4.25;;;;;;;;;;5040472;28;20074;-63
2022/03/05 03:10:10;;;;;;;12.45;5.18;;;;;;;;;;5039368;28;20404;-63
2022/03/05 03:12:36;;;;;;;11.95;4.43;;;;;;;;;;5039873;28;20587;-65
2022/03/05 03:15:03;;;;;;;12.98;4.78;;;;;;;;;;5039552;28;20609;-62
2022/03/05 03:17:29;;;;;;;10.32;5.13;;;;;;;;;;5041819;28;20036;-63
2022/03/05 03:19:54;;;;;;;9.80;4.93;;;;;;;;;;5009915;28;20045;-63
2022/03/05 03:22:20;;;;;;;11.50;4.75;;;;;;;;;;5027046;28;20607;-63
2022/03/05 03:24:45;;;;;;;11.52;5.22;;;;;;;;;;5042237;28;20064;-62
2022/03/05 03:27:13;;;;;;;10.23;4.55;;;;;;;;;;5029567;28;20021;-63
2022/03/05 03:29:38;;;;;;;8.45;4.25;;;;;;;;;;5041266;28;20100;-63
2022/03/05 03:32:07;;;;;;;10.63;4.28;;;;;;;;;;5040487;28;20036;-63
2022/03/05 03:34:34;;;;;;;12.18;5.82;;;;;;;;;;5040127;28;20089;-64
2022/03/05 03:37:02;;;;;;;11.30;4.50;;;;;;;;;;5038909;28;20029;-64
2022/03/05 03:39:30;;;;;;;7.00;3.72;;;;;;;;;;5040372;28;20574;-64
2022/03/05 03:41:56;;;;;;;8.10;4.00;;;;;;;;;;5040153;28;20472;-64
2022/03/05 03:44:24;;;;;;;6.22;3.95;;;;;;;;;;5042557;28;20040;-63
2022/03/05 03:46:52;;;;;;;7.32;4.40;;;;;;;;;;5030011;28;20059;-63
2022/03/05 03:49:17;;;;;;;9.93;4.70;;;;;;;;;;5030341;28;20029;-63
2022/03/05 03:51:48;;;;;;;12.10;5.35;;;;;;;;;;5041518;28;20025;-63
2022/03/05 03:54:16;;;;;;;14.95;5.40;;;;;;;;;;5042494;28;20025;-63
2022/03/05 03:56:42;;;;;;;10.35;3.95;;;;;;;;;;5040402;28;20234;-63
2022/03/05 03:59:08;;;;;;;8.23;4.55;;;;;;;;;;5039708;28;20033;-63
2022/03/05 04:01:33;;;;;;;12.35;5.22;;;;;;;;;;5022698;28;20028;-63
2022/03/05 04:04:05;;;;;;;11.02;4.13;;;;;;;;;;5041112;28;20044;-63
2022/03/05 04:08:41;;;;;;;8.93;3.92;;;;;;;;;;5015513;28;20618;-62
2022/03/05 04:09:16;;;;;;;9.73;4.30;;;;;;;;;;5040922;28;20127;-63
2022/03/05 04:11:42;;;;;;;9.05;4.32;;;;;;;;;;5024904;28;20757;-62
2022/03/05 04:14:10;;;;;;;10.88;4.45;;;;;;;;;;5042826;28;20150;-63
2022/03/05 04:16:41;;;;;;;14.90;5.72;;;;;;;;;;5043001;28;20036;-63
2022/03/05 04:19:10;;;;;;;11.13;5.00;;;;;;;;;;5031533;28;20041;-63
2022/03/05 04:21:35;;;;;;;10.85;4.78;;;;;;;;;;5030683;28;20127;-63
2022/03/05 04:24:04;;;;;;;5.80;3.40;;;;;;;;;;5040927;28;20036;-65
2022/03/05 04:26:29;;;;;;;10.85;4.25;;;;;;;;;;5041121;28;20036;-65
2022/03/05 04:28:55;;;;;;;7.03;3.85;;;;;;;;;;5025541;28;20039;-64
2022/03/05 04:31:20;;;;;;;9.25;4.43;;;;;;;;;;5024367;28;20033;-65
2022/03/05 04:33:46;;;;;;;10.70;5.07;;;;;;;;;;5040845;28;20029;-65
2022/03/05 04:36:15;;;;;;;6.70;3.33;;;;;;;;;;5029619;28;20044;-64
2022/03/05 04:38:44;;;;;;;6.63;3.03;;;;;;;;;;5043430;28;20029;-63
2022/03/05 04:41:09;;;;;;;11.70;4.72;;;;;;;;;;5040727;28;20036;-64
2022/03/05 04:43:37;;;;;;;6.20;3.63;;;;;;;;;;5027984;28;20074;-63
2022/03/05 04:46:05;;;;;;;6.93;3.28;;;;;;;;;;5025421;28;20028;-63
2022/03/05 04:48:31;;;;;;;8.25;4.40;;;;;;;;;;5042352;28;20021;-65
2022/03/05 04:50:56;;;;;;;9.38;4.20;;;;;;;;;;5040935;28;20059;-64
2022/03/05 04:53:22;;;;;;;11.55;4.80;;;;;;;;;;5042017;28;20045;-64
2022/03/05 04:55:48;;;;;;;10.82;4.35;;;;;;;;;;5043303;28;20031;-65
2022/03/05 04:58:14;;;;;;;9.38;4.72;;;;;;;;;;5028170;28;20055;-64
2022/03/05 05:00:39;;;;;;;10.25;4.20;;;;;;;;;;5045802;28;21021;-63
2022/03/05 05:03:05;;;;;;;8.20;4.38;;;;;;;;;;5048162;28;20116;-64
2022/03/05 05:05:30;;;;;;;12.10;4.00;;;;;;;;;;5028983;28;20048;-64
2022/03/05 05:07:58;;;;;;;7.75;4.05;;;;;;;;;;5037849;28;20121;-64
2022/03/05 05:10:24;;;;;;;6.82;3.30;;;;;;;;;;5038259;28;20654;-64
2022/03/05 05:12:50;;;;;;;7.68;3.85;;;;;;;;;;5037739;28;20035;-64
2022/03/05 05:15:15;;;;;;;9.57;3.70;;;;;;;;;;5046673;28;20034;-64
2022/03/05 05:17:43;;;;;;;11.95;4.55;;;;;;;;;;5041169;28;20055;-64
2022/03/05 05:20:10;;;;;;;7.93;3.80;;;;;;;;;;5037851;28;20145;-65
2022/03/05 05:22:35;;;;;;;10.85;4.75;;;;;;;;;;5036602;28;20032;-64
2022/03/05 05:25:00;;;;;;;8.95;4.18;;;;;;;;;;5051414;28;20064;-64
2022/03/05 05:27:26;;;;;;;11.57;5.07;;;;;;;;;;5044646;28;20052;-64
2022/03/05 05:29:54;;;;;;;10.15;4.28;;;;;;;;;;5036671;28;20490;-63
2022/03/05 05:32:22;;;;;;;9.15;4.22;;;;;;;;;;5038866;28;20035;-65
2022/03/05 05:34:48;;;;;;;8.27;4.00;;;;;;;;;;5027153;28;20041;-64
2022/03/05 05:37:13;;;;;;;7.88;3.65;;;;;;;;;;5026380;28;20121;-64
2022/03/05 05:39:42;;;;;;;6.97;2.70;;;;;;;;;;5040496;28;20609;-65
2022/03/05 05:42:07;;;;;;;9.90;4.00;;;;;;;;;;5025164;28;20025;-65
2022/03/05 05:44:33;;;;;;;10.18;4.43;;;;;;;;;;5039747;28;20510;-64
2022/03/05 05:47:01;;;;;;;6.53;4.03;;;;;;;;;;5036919;28;21660;-64
2022/03/05 05:49:29;;;;;;;9.10;4.32;;;;;;;;;;5038751;28;20048;-65
2022/03/05 05:51:55;;;;;;;12.13;4.57;;;;;;;;;;5039096;28;20017;-64
2022/03/05 05:54:22;;;;;;;11.65;4.13;;;;;;;;;;5023898;28;20549;-64
2022/03/05 05:56:47;;;;;;;11.63;4.28;;;;;;;;;;5028332;28;21950;-64
2022/03/05 05:59:12;;;;;;;10.00;4.63;;;;;;;;;;5038985;28;20024;-64
2022/03/05 06:01:39;;;;;;;8.35;4.03;;;;;;;;;;5042691;28;20045;-64
2022/03/05 06:04:04;;;;;;;12.05;5.57;;;;;;;;;;5039744;28;20447;-64
2022/03/05 06:06:30;;;;;;;10.98;4.80;;;;;;;;;;5039533;28;20061;-64
2022/03/05 06:08:57;;;;;;;10.10;4.72;;;;;;;;;;5038780;28;20066;-64
2022/03/05 06:11:25;;;;;;;12.50;4.40;;;;;;;;;;5033076;28;20127;-64
2022/03/05 06:13:51;;;;;;;8.75;4.05;;;;;;;;;;5043553;28;20028;-65
2022/03/05 06:16:19;;;;;;;7.55;3.70;;;;;;;;;;5040913;28;20074;-64
2022/03/05 06:18:47;;;;;;;11.00;4.53;;;;;;;;;;5027201;28;20043;-65
2022/03/05 06:21:15;;;;;;;11.30;3.70;;;;;;;;;;5048579;28;20130;-66
2022/03/05 06:23:42;;;;;;;14.75;4.95;;;;;;;;;;5042441;28;20062;-65
2022/03/05 06:26:13;;;;;;;9.82;4.35;;;;;;;;;;5014121;28;20099;-63
2022/03/05 06:28:41;;;;;;;9.13;4.47;;;;;;;;;;5047798;28;20250;-64
2022/03/05 06:31:10;;;;;;;7.97;4.75;;;;;;;;;;5045570;28;20025;-64
2022/03/05 06:33:36;;;;;;;10.30;4.35;;;;;;;;;;5042398;28;20719;-64
2022/03/05 06:36:05;;;;;;;12.02;5.45;;;;;;;;;;5030397;28;21497;-64
2022/03/05 06:38:31;;;;;;;14.43;5.38;;;;;;;;;;5040122;28;20485;-64
2022/03/05 06:41:02;;;;;;;10.10;4.78;;;;;;;;;;5039627;28;20114;-64
2022/03/05 06:43:27;;;;;;;6.60;3.30;;;;;;;;;;5026868;28;20043;-64
2022/03/05 06:45:56;;;;;;;11.70;4.78;;;;;;;;;;5040876;28;20043;-65
2022/03/05 06:48:21;;;;;;;8.73;4.68;;;;;;;;;;5047735;28;20032;-64
2022/03/05 06:50:48;;;;;;;14.73;5.25;;;;;;;;;;5038882;28;20500;-64
2022/03/05 06:53:22;;;;;;;7.80;5.45;;;;;;;;;;5040185;28;20038;-63
2022/03/05 06:55:54;;;;;;;6.93;4.28;;;;;;;;;;5043733;28;20090;-64
2022/03/05 06:58:19;;;;;;;12.93;5.18;;;;;;;;;;5042763;28;21928;-64
2022/03/05 07:00:45;;;;;;;13.35;4.68;;;;;;;;;;5014773;28;20039;-63
2022/03/05 07:03:11;;;;;;;13.95;6.20;;;;;;;;;;5042038;28;20075;-65
2022/03/05 07:05:36;;;;;;;13.40;5.38;;;;;;;;;;5042122;28;20040;-65
2022/03/05 07:08:03;;;;;;;8.65;4.80;;;;;;;;;;5039922;28;20037;-63
2022/03/05 07:10:28;;;;;;;8.48;4.82;;;;;;;;;;5040787;28;20043;-63
2022/03/05 07:12:55;;;;;;;10.57;4.85;;;;;;;;;;5037598;28;20032;-63
2022/03/05 07:15:21;;;;;;;17.33;4.95;;;;;;;;;;5041086;28;20043;-65
2022/03/05 07:17:51;;;;;;;10.85;4.45;;;;;;;;;;5040845;28;20117;-64
2022/03/05 07:20:17;;;;;;;9.70;4.90;;;;;;;;;;5034793;28;20040;-63
2022/03/05 07:22:43;;;;;;;9.68;4.97;;;;;;;;;;5035246;28;20032;-63
2022/03/05 07:25:09;;;;;;;11.55;4.88;;;;;;;;;;5040536;28;20079;-64
2022/03/05 07:27:35;;;;;;;11.07;4.80;;;;;;;;;;5040584;28;20029;-63
2022/03/05 07:30:00;;;;;;;11.73;4.68;;;;;;;;;;5028458;28;20044;-64
2022/03/05 07:32:30;;;;;;;8.40;4.18;;;;;;;;;;5040419;28;20024;-64
2022/03/05 07:34:55;;;;;;;14.43;5.72;;;;;;;;;;5041569;28;20417;-64
2022/03/05 07:37:21;;;;;;;9.25;4.40;;;;;;;;;;5047228;28;20025;-64
2022/03/05 07:39:46;;;;;;;12.23;5.05;;;;;;;;;;5030825;28;20029;-62
2022/03/05 07:42:12;;;;;;;8.63;4.28;;;;;;;;;;5041784;28;20040;-63
2022/03/05 07:44:38;;;;;;;11.73;5.13;;;;;;;;;;5041102;28;20966;-63
2022/03/05 07:47:05;;;;;;;13.35;5.40;;;;;;;;;;5039575;28;20060;-63
2022/03/05 07:49:30;;;;;;;11.02;5.13;;;;;;;;;;5038125;28;21000;-63
2022/03/05 07:51:56;;;;;;;8.73;5.55;;;;;;;;;;5038130;28;20031;-64
2022/03/05 07:54:23;;;;;;;14.63;6.05;;;;;;;;;;5040405;28;20716;-63
2022/03/05 07:56:49;;;;;;;12.85;5.07;;;;;;;;;;5044155;28;20035;-63
2022/03/05 07:59:18;;;;;;;10.00;5.00;;;;;;;;;;5047152;28;20566;-63
2022/03/05 08:01:44;;;;;;;8.48;4.75;;;;;;;;;;5027757;28;20563;-63
2022/03/05 08:04:10;;;;;;;10.73;4.85;;;;;;;;;;5040987;28;20070;-63
2022/03/05 08:06:37;;;;;;;20.50;5.78;;;;;;;;;;5039258;28;20049;-64
2022/03/05 08:09:02;;;;;;;10.70;5.10;;;;;;;;;;5039297;28;20110;-63
2022/03/05 08:11:28;;;;;;;8.50;4.72;;;;;;;;;;5037430;28;20024;-64
2022/03/05 08:13:56;;;;;;;9.38;5.28;;;;;;;;;;5036952;28;20089;-63
2022/03/05 08:16:22;;;;;;;10.07;5.32;;;;;;;;;;5034605;28;20028;-62
2022/03/05 08:18:48;;;;;;;9.10;4.82;;;;;;;;;;5034593;28;20037;-63
2022/03/05 08:21:14;;;;;;;12.13;5.05;;;;;;;;;;5041564;28;20032;-63
2022/03/05 08:23:40;;;;;;;11.48;4.85;;;;;;;;;;5038487;28;20027;-62
2022/03/05 08:26:13;;;;;;;7.88;4.47;;;;;;;;;;5039135;28;20075;-63
2022/03/05 08:28:39;;;;;;;9.75;4.85;;;;;;;;;;5037195;28;20032;-62
2022/03/05 08:31:08;;;;;;;10.85;5.18;;;;;;;;;;5036564;28;20391;-62
2022/03/05 08:33:34;;;;;;;9.55;5.07;;;;;;;;;;5044284;28;20036;-61
2022/03/05 08:36:00;;;;;;;7.60;4.50;;;;;;;;;;5039109;28;20442;-61
2022/03/05 08:38:25;;;;;;;8.65;4.40;;;;;;;;;;5045938;28;22157;-61
2022/03/05 08:40:51;;;;;;;12.50;4.70;;;;;;;;;;5037581;28;20044;-60
2022/03/05 08:43:16;;;;;;;9.52;4.70;;;;;;;;;;5046125;28;20755;-60
2022/03/05 08:45:44;;;;;;;8.52;4.35;;;;;;;;;;5036212;28;20154;-60
2022/03/05 08:48:12;;;;;;;8.80;4.50;;;;;;;;;;5031755;28;20040;-61
2022/03/05 08:50:37;;;;;;;17.50;5.38;;;;;;;;;;5035449;28;20032;-61
2022/03/05 08:53:06;;;;;;;9.88;4.45;;;;;;;;;;5021751;28;20043;-62
2022/03/05 08:55:36;;;;;;;10.25;4.82;;;;;;;;;;5041450;28;20033;-60
2022/03/05 08:58:04;;;;;;;8.38;4.65;;;;;;;;;;5035433;28;20032;-60
2022/03/05 09:00:30;;;;;;;12.43;5.18;;;;;;;;;;5026376;28;20037;-60
2022/03/05 09:02:58;;;;;;;9.27;5.28;;;;;;;;;;5036302;28;20741;-59
2022/03/05 09:05:26;;;;;;;10.77;4.40;;;;;;;;;;5036936;28;21295;-59
2022/03/05 09:07:54;;;;;;;9.80;4.70;;;;;;;;;;5036989;28;20052;-60
2022/03/05 09:10:23;;;;;;;11.25;5.28;;;;;;;;;;5038629;28;20042;-59
2022/03/05 09:12:51;;;;;;;8.63;4.85;;;;;;;;;;5025558;28;20055;-59
2022/03/05 09:15:19;;;;;;;9.85;4.18;;;;;;;;;;5037763;28;20113;-59
2022/03/05 09:17:50;;;;;;;12.90;5.22;;;;;;;;;;5038192;28;21647;-59
2022/03/05 09:20:15;;;;;;;11.90;4.95;;;;;;;;;;5043414;28;20067;-60
2022/03/05 09:22:41;;;;;;;13.93;4.80;;;;;;;;;;5034859;28;20038;-60
2022/03/05 09:25:08;;;;;;;10.25;4.88;;;;;;;;;;5009988;28;20048;-60
2022/03/05 09:27:36;;;;;;;9.18;4.82;;;;;;;;;;5035905;28;21893;-61
2022/03/05 09:30:07;;;;;;;9.13;4.85;;;;;;;;;;5041099;28;21980;-61
2022/03/05 09:32:33;;;;;;;12.27;5.10;;;;;;;;;;5038795;28;20036;-60
2022/03/05 09:34:59;;;;;;;9.77;5.10;;;;;;;;;;5010634;28;20044;-60
2022/03/05 09:37:30;;;;;;;9.77;4.75;;;;;;;;;;5042384;28;20043;-60
2022/03/05 09:39:56;;;;;;;9.70;4.93;;;;;;;;;;5038556;28;20105;-61
2022/03/05 09:42:22;;;;;;;11.35;4.50;;;;;;;;;;5037443;28;20123;-60
2022/03/05 09:44:48;;;;;;;12.15;5.53;;;;;;;;;;5041513;28;20024;-60
2022/03/05 09:47:18;;;;;;;14.25;6.68;;;;;;;;;;5043117;28;20025;-60
2022/03/05 09:49:44;;;;;;;12.32;5.90;;;;;;;;;;5044242;28;20151;-60
2022/03/05 09:52:09;;;;;;;14.80;6.57;;;;;;;;;;5024767;28;20080;-60
2022/03/05 09:54:36;;;;;;;12.60;6.05;;;;;;;;;;5040326;28;20068;-60
2022/03/05 09:57:07;;;;;;;11.93;6.32;;;;;;;;;;5041994;28;20033;-59
2022/03/05 09:59:35;;;;;;;11.57;6.20;;;;;;;;;;5042244;28;20039;-59
2022/03/05 10:02:05;;;;;;;11.38;5.65;;;;;;;;;;5043655;28;20041;-60
2022/03/05 10:04:36;;;;;;;14.07;6.18;;;;;;;;;;5047331;28;20552;-61
2022/03/05 10:07:08;;;;;;;14.85;6.03;;;;;;;;;;5038339;28;20072;-60
2022/03/05 10:09:37;;;;;;;12.63;5.80;;;;;;;;;;5041681;28;20032;-60
2022/03/05 10:12:25;;;;;;;13.07;5.65;;;;;;;;;;5039934;28;20149;-60
2022/03/05 10:15:05;;;;;;;13.88;6.75;;;;;;;;;;5043487;28;20032;-60
2022/03/05 10:17:45;;;;;;;13.55;5.80;;;;;;;;;;5041307;28;20505;-60
2022/03/05 10:20:11;;;;;;;12.52;5.53;;;;;;;;;;5044185;28;20052;-60
2022/03/05 10:22:36;;;;;;;14.52;5.85;;;;;;;;;;5040929;28;20048;-60
2022/03/05 10:25:02;;;;;;;12.90;5.80;;;;;;;;;;5042249;28;20029;-60
2022/03/05 10:27:29;;;;;;;11.70;6.40;;;;;;;;;;5041369;28;20039;-62
2022/03/05 10:29:58;;;;;;;11.75;6.35;;;;;;;;;;5039994;28;20060;-60
2022/03/05 10:32:29;;;;;;;14.93;5.95;;;;;;;;;;5040267;28;20167;-61
2022/03/05 10:34:55;;;;;;;10.13;5.88;;;;;;;;;;5047301;28;20132;-61
2022/03/05 10:37:21;;;;;;;12.27;6.10;;;;;;;;;;5039262;28;20653;-60
2022/03/05 10:39:52;;;;;;;14.30;6.32;;;;;;;;;;5041199;28;20044;-60
2022/03/05 10:42:19;;;;;;;12.30;5.97;;;;;;;;;;5044007;28;20167;-60
2022/03/05 10:44:58;;;;;;;13.63;6.60;;;;;;;;;;5039912;28;20036;-61
2022/03/05 10:47:24;;;;;;;9.77;5.75;;;;;;;;;;5038908;28;20671;-62
2022/03/05 10:49:52;;;;;;;12.27;6.13;;;;;;;;;;5040563;28;20036;-61
2022/03/05 10:52:20;;;;;;;13.90;6.93;;;;;;;;;;5041165;28;20873;-61
2022/03/05 10:54:45;;;;;;;9.52;5.22;;;;;;;;;;5040303;28;20731;-61
2022/03/05 10:57:15;;;;;;;13.77;6.25;;;;;;;;;;5040465;28;20043;-61
2022/03/05 10:59:41;;;;;;;11.80;6.55;;;;;;;;;;5046708;28;20041;-61
2022/03/05 11:02:07;;;;;;;11.50;5.70;;;;;;;;;;5042474;28;20044;-61
2022/03/05 11:04:37;;;;;;;13.60;6.25;;;;;;;;;;5041338;28;20051;-61
2022/03/05 11:07:05;;;;;;;14.32;7.00;;;;;;;;;;5041438;28;20044;-63
2022/03/05 11:09:34;;;;;;;11.63;6.38;;;;;;;;;;5057295;28;22041;-63
2022/03/05 11:12:00;;;;;;;12.02;6.57;;;;;;;;;;5015280;28;20021;-62
2022/03/05 11:14:27;;;;;;;12.77;6.28;;;;;;;;;;5057197;28;20033;-61
2022/03/05 11:16:56;;;;;;;11.65;6.15;;;;;;;;;;5042024;28;20437;-63
2022/03/05 11:19:25;;;;;;;11.98;5.88;;;;;;;;;;5041799;28;20854;-62
2022/03/05 11:21:52;;;;;;;13.32;6.40;;;;;;;;;;5037579;28;20041;-63
2022/03/05 11:24:19;;;;;;;11.90;5.15;;;;;;;;;;5041810;28;20044;-61
2022/03/05 11:26:49;;;;;;;13.25;6.78;;;;;;;;;;5041097;28;20045;-61
2022/03/05 11:29:29;;;;;;;11.65;6.13;;;;;;;;;;5041770;28;20452;-61
2022/03/05 11:32:11;;;;;;;13.25;6.47;;;;;;;;;;5041009;28;20114;-62
2022/03/05 11:34:42;;;;;;;15.35;6.68;;;;;;;;;;5045557;28;20074;-62
2022/03/05 11:37:14;;;;;;;16.30;7.32;;;;;;;;;;5042452;28;20104;-61
2022/03/05 11:39:41;;;;;;;18.73;8.43;;;;;;;;;;5041748;28;20036;-61
2022/03/05 11:42:08;;;;;;;20.67;9.32;;;;;;;;;;5021140;28;20052;-61
2022/03/05 11:44:41;;;;;;;15.63;7.47;;;;;;;;;;5022577;28;20345;-61
2022/03/05 11:47:19;;;;;;;16.77;8.73;;;;;;;;;;5041382;28;20046;-60
2022/03/05 11:50:00;;;;;;;20.63;8.75;;;;;;;;;;5038755;28;20042;-60
2022/03/05 11:52:37;;;;;;;13.52;7.65;;;;;;;;;;5046998;28;20700;-60
2022/03/05 11:55:15;;;;;;;13.93;7.88;;;;;;;;;;5025223;28;22014;-60
2022/03/05 11:57:43;;;;;;;13.98;7.03;;;;;;;;;;5039506;28;20043;-64
2022/03/05 12:00:09;;;;;;;15.63;7.00;;;;;;;;;;5022607;28;20033;-61
2022/03/05 12:02:38;;;;;;;16.63;6.32;;;;;;;;;;5039766;28;20039;-60
2022/03/05 12:05:06;;;;;;;12.48;7.28;;;;;;;;;;5037535;28;20054;-60
2022/03/05 12:07:40;;;;;;;12.80;6.75;;;;;;;;;;5043945;28;20033;-60
2022/03/05 12:10:15;;;;;;;16.17;7.35;;;;;;;;;;5035567;28;20163;-60
2022/03/05 12:12:51;;;;;;;13.63;6.70;;;;;;;;;;5037869;28;20502;-62
2022/03/05 12:15:16;;;;;;;12.13;7.15;;;;;;;;;;5039129;28;20120;-61
2022/03/05 12:17:47;;;;;;;13.02;5.90;;;;;;;;;;5040141;28;20068;-62
2022/03/05 12:20:18;;;;;;;8.82;6.15;;;;;;;;;;5044412;28;22889;-63
2022/03/05 12:22:47;;;;;;;11.48;6.00;;;;;;;;;;5028339;28;20029;-62
2022/03/05 12:25:12;;;;;;;14.60;7.47;;;;;;;;;;5027789;28;20028;-62
2022/03/05 12:27:43;;;;;;;13.57;6.68;;;;;;;;;;5038906;28;20194;-61
2022/03/05 12:30:11;;;;;;;12.57;6.10;;;;;;;;;;5037657;28;20118;-61
2022/03/05 12:32:37;;;;;;;10.52;5.63;;;;;;;;;;5024652;28;20036;-62
2022/03/05 12:35:06;;;;;;;10.80;6.40;;;;;;;;;;5027286;28;20521;-62
2022/03/05 12:37:33;;;;;;;14.90;6.28;;;;;;;;;;5040472;28;20040;-63
2022/03/05 12:39:59;;;;;;;12.05;6.13;;;;;;;;;;5051660;28;20106;-60
2022/03/05 12:42:33;;;;;;;14.50;6.85;;;;;;;;;;5038135;28;20107;-60
2022/03/05 12:44:58;;;;;;;11.05;5.95;;;;;;;;;;5040215;28;20104;-60
2022/03/05 12:47:30;;;;;;;9.52;5.95;;;;;;;;;;5028557;28;20025;-60
2022/03/05 12:49:58;;;;;;;12.98;6.75;;;;;;;;;;5045042;28;20152;-62
2022/03/05 12:52:23;;;;;;;11.35;5.68;;;;;;;;;;5026904;28;20033;-62
2022/03/05 12:54:52;;;;;;;12.73;6.43;;;;;;;;;;5029660;28;20035;-62
2022/03/05 12:57:20;;;;;;;10.80;6.07;;;;;;;;;;5039618;28;20033;-61
2022/03/05 12:59:46;;;;;;;12.20;7.22;;;;;;;;;;5038979;28;20090;-60
2022/03/05 13:02:12;;;;;;;14.10;7.75;;;;;;;;;;5039636;28;20758;-61
2022/03/05 13:04:37;;;;;;;17.50;9.23;;;;;;;;;;5037609;28;20037;-61
2022/03/05 13:07:05;;;;;;;20.27;10.25;;;;;;;;;;5039295;28;20053;-61
2022/03/05 13:09:34;;;;;;;16.00;8.70;;;;;;;;;;5039019;28;20114;-59
2022/03/05 13:12:00;;;;;;;17.42;9.48;;;;;;;;;;5037723;28;20033;-61
2022/03/05 13:14:25;;;;;;;15.18;8.15;;;;;;;;;;5039856;28;20077;-60
2022/03/05 13:16:52;;;;;;;12.93;7.43;;;;;;;;;;5043465;28;20070;-60
2022/03/05 13:19:18;;;;;;;10.45;5.88;;;;;;;;;;5035021;28;22175;-60
2022/03/05 13:21:46;;;;;;;12.13;6.45;;;;;;;;;;5033773;28;20490;-61
2022/03/05 13:24:14;;;;;;;14.68;6.57;;;;;;;;;;5038354;28;20151;-61
2022/03/05 13:26:45;;;;;;;14.68;6.50;;;;;;;;;;5038525;28;20048;-60
2022/03/05 13:29:12;;;;;;;11.93;6.90;;;;;;;;;;5046779;28;20048;-60
2022/03/05 13:31:38;;;;;;;10.95;6.80;;;;;;;;;;5053151;28;20021;-60
2022/03/05 13:34:05;;;;;;;10.52;6.20;;;;;;;;;;5036840;28;20025;-64
2022/03/05 13:36:39;;;;;;;11.18;6.32;;;;;;;;;;5040624;28;20082;-60
2022/03/05 13:39:09;;;;;;;11.68;6.93;;;;;;;;;;5037747;28;20415;-60
2022/03/05 13:41:41;;;;;;;11.57;6.78;;;;;;;;;;5037312;28;20021;-60
2022/03/05 13:44:16;;;;;;;13.82;6.72;;;;;;;;;;5036901;28;20113;-60
2022/03/05 13:46:42;;;;;;;11.57;6.45;;;;;;;;;;5043255;28;20024;-61
2022/03/05 13:49:11;;;;;;;9.60;6.57;;;;;;;;;;5036747;28;20048;-60
2022/03/05 13:51:37;;;;;;;10.07;5.95;;;;;;;;;;5023541;28;20415;-60
2022/03/05 13:54:04;;;;;;;11.73;5.90;;;;;;;;;;5037490;28;20078;-61
2022/03/05 13:56:42;;;;;;;10.43;6.00;;;;;;;;;;5035614;28;20532;-61
2022/03/05 13:59:08;;;;;;;10.70;6.65;;;;;;;;;;5026039;28;20128;-61
2022/03/05 14:01:35;;;;;;;8.73;5.63;;;;;;;;;;5037129;28;20028;-61
2022/03/05 14:04:08;;;;;;;14.23;6.53;;;;;;;;;;5035456;28;20021;-62
2022/03/05 14:06:56;;;;;;;11.60;6.35;;;;;;;;;;5035300;28;20035;-61
2022/03/05 14:09:25;;;;;;;10.60;6.03;;;;;;;;;;5037432;28;20510;-62
2022/03/05 14:12:00;;;;;;;13.45;6.85;;;;;;;;;;5037080;28;20134;-61
2022/03/05 14:14:45;;;;;;;12.32;6.95;;;;;;;;;;5052958;28;20036;-61
2022/03/05 14:17:24;;;;;;;19.30;8.68;;;;;;;;;;5043944;28;20040;-61
2022/03/05 14:19:50;;;;;;;11.88;7.10;;;;;;;;;;5034183;28;20036;-60
2022/03/05 14:22:19;;;;;;;18.42;8.32;;;;;;;;;;5024013;28;20052;-61
2022/03/05 14:24:45;;;;;;;14.15;7.10;;;;;;;;;;5038494;28;20066;-61
2022/03/05 14:27:12;;;;;;;16.20;8.38;;;;;;;;;;5018950;28;20033;-61
2022/03/05 14:29:41;;;;;;;12.23;7.05;;;;;;;;;;5044601;28;20358;-61
2022/03/05 14:32:11;;;;;;;11.95;7.30;;;;;;;;;;5025961;28;20135;-60
2022/03/05 14:34:36;;;;;;;13.38;7.00;;;;;;;;;;5039082;28;20060;-61
2022/03/05 14:37:02;;;;;;;14.38;7.15;;;;;;;;;;5048062;28;20024;-60